Aérodrome :
LOGIN :

S'inscrire | Disclaimer

   EN    FR    IT 

 










Légende :    VFR   VFR Marginal   IFR   IFR Intensif   IFR Très Intensif
Visi : 
Plafond : 
>= 8 km
>= 3000ft
5 à 8 km
1000 à 3000 ft
1500m à 5 km
500 à 1000 ft
800 à 1500m
200 à 500 ft
< 800m
< 200 ft
Symboles :   Orages  Brouillard  Fortes neiges  Fortes précipitations  Vent > 20 kt
SIGMETs :   Divers  Orages  Givrage  Turbulence  Onde Orograph.  Cendres Volcan.






- Altitude de l'aérodrome : 390 ft
- Code IATA : NQY


EGHQ - Newquay

DERNIER METAR :
  • 051950Z 23016KT 7000 -RA BKN005 10/10 Q1016

METARs EXPIRÉS :
  • 051920Z 23016KT 9999 BKN005 09/09 Q1017
  • 051850Z 23015KT 3000 -DZ BKN003 09/09 Q1017
  • 051820Z 23016KT 6000 DZ BKN004 09/09 Q1017
  • 051750Z 23018G29KT 6000 -DZ BKN006 10/08 Q1017
  • 051720Z 23015KT 9999 BKN012 10/08 Q1017
  • 051650Z 23017KT 9999 BKN014 10/07 Q1017

TAF TAF EGHQ
Valide du 05 à 18h jusqu'au 06 à 03h UTC


051707Z 0518/0603 22012KT 9999 BKN014
BECMG 0518/0521 BKN009
TEMPO 0518/0603 23020G30KT
PROB40
TEMPO 0518/0603 4000 RADZ BR BKN004



MET'MAP, la Météo Aéronautique d'un coup d'oeil ! - Copyright ORBIFLY Décembre 2007 - Disclaimer

ORBIFLY MET'MAP TEAM :

Programmation & Développement : Alexandra Zaïnal
Sur une idée originale de : Baudouin d'Aumeries
Assistance à la programmation : Marc-Olivier Méhu
Soutien technique & logistique : Manuel Goepfert

Contact : metmap@orbifly.com




SOURCES & CREDITS :

   NOAA